CYRA

Rae Lakes Airport

Gamètì, Northwest Territories, Canada
METAR CYRA 231400Z VRB02KT 15SM SCT020 BKN025 BKN040 09/04 A2962 RMK SC3SC2SC2 24.2/ 4.5/ 0.1MM/ SLP038
Observed Flight Rules
May-23 @ 14:00 UTC (an hour ago) Marginal Visual Flight Rules
Wind Visibility Clouds
Variable at 2 knots 15 miles
  • Scattered at 2,000' AGL
  • Broken at 2,500' AGL
  • Broken at 4,000' AGL
Temperatures Readings
Current 9°C / 48°F
Dewpoint 4°C / 39°F
Humidity 71%
Altimeter 29.62" Hg
Pressure 1003.8 hPa
Elevation 213
METAR CYRA 231400Z VRB02KT 15SM SCT020 BKN025 BKN040 09/04 A2962 RMK SC3SC2SC2 24.2/ 4.5/ 0.1MM/ SLP038
Observed Flight Rules
May-23 @ 14:00 UTC
(an hour ago)
MVFR
Wind Visibility
Variable at 2 knots 15 miles
Clouds
  • Scattered at 2,000' AGL
  • Broken at 2,500' AGL
  • Broken at 4,000' AGL
Temperature Dewpoint
9°C / 48°F 4°C / 39°F
Humidity Altimeter Pressure
71% 29.62" Hg 1003.8 hPa